sensor_id;sensor_type;location;lat;lon;timestamp;P1;durP1;ratioP1;P2;durP2;ratioP2
35028;SDS011;35394;54.282;10.070;2023-06-26T00:00:23;2.30;;;2.10;;
35028;SDS011;35394;54.282;10.070;2023-06-26T00:00:53;3.00;;;2.33;;
35028;SDS011;35394;54.282;10.070;2023-06-26T00:01:24;2.47;;;2.10;;
35028;SDS011;35394;54.282;10.070;2023-06-26T00:01:59;2.70;;;2.28;;
35028;SDS011;35394;54.282;10.070;2023-06-26T00:02:30;2.67;;;2.30;;
35028;SDS011;35394;54.282;10.070;2023-06-26T00:03:02;2.60;;;2.40;;
35028;SDS011;35394;54.282;10.070;2023-06-26T00:03:33;2.70;;;2.30;;
35028;SDS011;35394;54.282;10.070;2023-06-26T00:04:04;2.63;;;2.40;;
35028;SDS011;35394;54.282;10.070;2023-06-26T00:04:34;2.72;;;2.40;;
35028;SDS011;35394;54.282;10.070;2023-06-26T00:05:07;2.60;;;2.30;;
35028;SDS011;35394;54.282;10.070;2023-06-26T00:05:38;2.50;;;2.30;;
35028;SDS011;35394;54.282;10.070;2023-06-26T00:06:09;2.83;;;2.20;;
35028;SDS011;35394;54.282;10.070;2023-06-26T00:06:40;2.53;;;2.25;;
35028;SDS011;35394;54.282;10.070;2023-06-26T00:07:11;2.67;;;2.20;;
35028;SDS011;35394;54.282;10.070;2023-06-26T00:07:42;2.47;;;2.28;;
35028;SDS011;35394;54.282;10.070;2023-06-26T00:08:12;2.55;;;2.35;;
35028;SDS011;35394;54.282;10.070;2023-06-26T00:08:43;2.63;;;2.37;;
35028;SDS011;35394;54.282;10.070;2023-06-26T00:09:14;2.72;;;2.20;;
35028;SDS011;35394;54.282;10.070;2023-06-26T00:09:44;3.00;;;2.20;;
35028;SDS011;35394;54.282;10.070;2023-06-26T00:10:15;2.70;;;2.35;;
35028;SDS011;35394;54.282;10.070;2023-06-26T00:10:46;2.90;;;2.30;;
35028;SDS011;35394;54.282;10.070;2023-06-26T00:11:17;2.60;;;2.20;;
35028;SDS011;35394;54.282;10.070;2023-06-26T00:11:47;2.70;;;2.27;;
35028;SDS011;35394;54.282;10.070;2023-06-26T00:12:18;2.58;;;2.28;;
35028;SDS011;35394;54.282;10.070;2023-06-26T00:12:49;2.58;;;2.35;;
35028;SDS011;35394;54.282;10.070;2023-06-26T00:13:20;2.63;;;2.20;;
35028;SDS011;35394;54.282;10.070;2023-06-26T00:13:51;2.35;;;2.15;;
35028;SDS011;35394;54.282;10.070;2023-06-26T00:14:22;2.63;;;2.17;;
35028;SDS011;35394;54.282;10.070;2023-06-26T00:14:53;2.63;;;2.30;;
35028;SDS011;35394;54.282;10.070;2023-06-26T00:15:23;2.33;;;2.10;;
35028;SDS011;35394;54.282;10.070;2023-06-26T00:15:54;2.40;;;2.20;;
35028;SDS011;35394;54.282;10.070;2023-06-26T00:16:25;2.90;;;2.22;;
35028;SDS011;35394;54.282;10.070;2023-06-26T00:16:55;2.83;;;2.20;;
35028;SDS011;35394;54.282;10.070;2023-06-26T00:17:26;2.80;;;2.50;;
35028;SDS011;35394;54.282;10.070;2023-06-26T00:17:58;3.03;;;2.50;;
35028;SDS011;35394;54.282;10.070;2023-06-26T00:18:29;3.10;;;2.50;;
35028;SDS011;35394;54.282;10.070;2023-06-26T00:18:59;2.40;;;2.20;;
35028;SDS011;35394;54.282;10.070;2023-06-26T00:19:30;2.30;;;2.10;;
35028;SDS011;35394;54.282;10.070;2023-06-26T00:20:01;2.70;;;2.33;;
35028;SDS011;35394;54.282;10.070;2023-06-26T00:20:31;2.58;;;2.20;;
35028;SDS011;35394;54.282;10.070;2023-06-26T00:21:03;2.38;;;2.17;;
35028;SDS011;35394;54.282;10.070;2023-06-26T00:21:34;2.83;;;2.50;;
35028;SDS011;35394;54.282;10.070;2023-06-26T00:22:05;2.37;;;2.17;;
35028;SDS011;35394;54.282;10.070;2023-06-26T00:22:35;2.42;;;2.20;;
35028;SDS011;35394;54.282;10.070;2023-06-26T00:23:06;2.63;;;2.30;;
35028;SDS011;35394;54.282;10.070;2023-06-26T00:23:37;2.53;;;2.22;;
35028;SDS011;35394;54.282;10.070;2023-06-26T00:24:08;2.50;;;2.20;;
35028;SDS011;35394;54.282;10.070;2023-06-26T00:24:38;2.42;;;2.22;;
35028;SDS011;35394;54.282;10.070;2023-06-26T00:25:09;2.47;;;2.17;;
35028;SDS011;35394;54.282;10.070;2023-06-26T00:25:39;2.78;;;2.47;;
35028;SDS011;35394;54.282;10.070;2023-06-26T00:26:10;2.90;;;2.40;;
35028;SDS011;35394;54.282;10.070;2023-06-26T00:26:41;2.47;;;2.20;;
35028;SDS011;35394;54.282;10.070;2023-06-26T00:27:12;3.30;;;2.50;;
35028;SDS011;35394;54.282;10.070;2023-06-26T00:27:43;2.40;;;2.20;;
35028;SDS011;35394;54.282;10.070;2023-06-26T00:28:13;2.73;;;2.40;;
35028;SDS011;35394;54.282;10.070;2023-06-26T00:28:44;2.50;;;2.20;;
35028;SDS011;35394;54.282;10.070;2023-06-26T00:29:15;3.00;;;2.40;;
35028;SDS011;35394;54.282;10.070;2023-06-26T00:29:45;3.28;;;2.50;;
35028;SDS011;35394;54.282;10.070;2023-06-26T00:30:16;2.70;;;2.33;;
35028;SDS011;35394;54.282;10.070;2023-06-26T00:30:46;2.90;;;2.40;;
35028;SDS011;35394;54.282;10.070;2023-06-26T00:31:17;2.30;;;2.10;;
35028;SDS011;35394;54.282;10.070;2023-06-26T00:31:48;2.90;;;2.47;;
35028;SDS011;35394;54.282;10.070;2023-06-26T00:32:18;2.95;;;2.38;;
35028;SDS011;35394;54.282;10.070;2023-06-26T00:32:49;3.00;;;2.50;;
35028;SDS011;35394;54.282;10.070;2023-06-26T00:33:21;2.72;;;2.40;;
35028;SDS011;35394;54.282;10.070;2023-06-26T00:33:52;2.65;;;2.20;;
35028;SDS011;35394;54.282;10.070;2023-06-26T00:34:22;2.53;;;2.30;;
35028;SDS011;35394;54.282;10.070;2023-06-26T00:34:53;2.63;;;2.40;;
35028;SDS011;35394;54.282;10.070;2023-06-26T00:35:24;2.70;;;2.40;;
35028;SDS011;35394;54.282;10.070;2023-06-26T00:35:54;2.60;;;2.20;;
35028;SDS011;35394;54.282;10.070;2023-06-26T00:36:25;2.60;;;2.30;;
35028;SDS011;35394;54.282;10.070;2023-06-26T00:36:56;2.97;;;2.40;;
35028;SDS011;35394;54.282;10.070;2023-06-26T00:37:27;2.50;;;2.30;;
35028;SDS011;35394;54.282;10.070;2023-06-26T00:37:57;2.77;;;2.37;;
35028;SDS011;35394;54.282;10.070;2023-06-26T00:38:28;2.63;;;2.22;;
35028;SDS011;35394;54.282;10.070;2023-06-26T00:38:59;2.90;;;2.40;;
35028;SDS011;35394;54.282;10.070;2023-06-26T00:39:30;2.90;;;2.40;;
35028;SDS011;35394;54.282;10.070;2023-06-26T00:40:00;2.72;;;2.35;;
35028;SDS011;35394;54.282;10.070;2023-06-26T00:40:31;3.33;;;2.33;;
35028;SDS011;35394;54.282;10.070;2023-06-26T00:41:01;3.03;;;2.38;;
35028;SDS011;35394;54.282;10.070;2023-06-26T00:41:32;2.93;;;2.33;;
35028;SDS011;35394;54.282;10.070;2023-06-26T00:42:03;2.47;;;2.25;;
35028;SDS011;35394;54.282;10.070;2023-06-26T00:42:34;3.15;;;2.50;;
35028;SDS011;35394;54.282;10.070;2023-06-26T00:43:04;3.13;;;2.63;;
35028;SDS011;35394;54.282;10.070;2023-06-26T00:43:35;2.60;;;2.30;;
35028;SDS011;35394;54.282;10.070;2023-06-26T00:44:06;2.53;;;2.33;;
35028;SDS011;35394;54.282;10.070;2023-06-26T00:44:36;2.37;;;2.17;;
35028;SDS011;35394;54.282;10.070;2023-06-26T00:45:07;2.60;;;2.20;;
35028;SDS011;35394;54.282;10.070;2023-06-26T00:45:38;2.78;;;2.40;;
35028;SDS011;35394;54.282;10.070;2023-06-26T00:46:09;3.03;;;2.58;;
35028;SDS011;35394;54.282;10.070;2023-06-26T00:46:41;3.10;;;2.40;;
35028;SDS011;35394;54.282;10.070;2023-06-26T00:47:13;3.10;;;2.50;;
35028;SDS011;35394;54.282;10.070;2023-06-26T00:47:45;2.92;;;2.40;;
35028;SDS011;35394;54.282;10.070;2023-06-26T00:48:16;2.78;;;2.25;;
35028;SDS011;35394;54.282;10.070;2023-06-26T00:48:47;2.95;;;2.45;;
35028;SDS011;35394;54.282;10.070;2023-06-26T00:49:18;2.80;;;2.30;;
35028;SDS011;35394;54.282;10.070;2023-06-26T00:49:49;2.80;;;2.33;;
35028;SDS011;35394;54.282;10.070;2023-06-26T00:50:20;2.80;;;2.50;;
35028;SDS011;35394;54.282;10.070;2023-06-26T00:50:51;2.72;;;2.20;;
35028;SDS011;35394;54.282;10.070;2023-06-26T00:51:21;2.90;;;2.47;;
35028;SDS011;35394;54.282;10.070;2023-06-26T00:51:52;2.85;;;2.40;;
35028;SDS011;35394;54.282;10.070;2023-06-26T00:52:23;2.78;;;2.40;;
35028;SDS011;35394;54.282;10.070;2023-06-26T00:52:54;3.10;;;2.67;;
35028;SDS011;35394;54.282;10.070;2023-06-26T00:53:30;2.92;;;2.47;;
35028;SDS011;35394;54.282;10.070;2023-06-26T00:54:01;2.60;;;2.38;;
35028;SDS011;35394;54.282;10.070;2023-06-26T00:54:32;2.83;;;2.42;;
35028;SDS011;35394;54.282;10.070;2023-06-26T00:55:03;2.95;;;2.50;;
35028;SDS011;35394;54.282;10.070;2023-06-26T00:55:34;2.70;;;2.40;;
35028;SDS011;35394;54.282;10.070;2023-06-26T00:56:05;2.80;;;2.40;;
35028;SDS011;35394;54.282;10.070;2023-06-26T00:56:36;2.85;;;2.55;;
35028;SDS011;35394;54.282;10.070;2023-06-26T00:57:07;2.60;;;2.40;;
35028;SDS011;35394;54.282;10.070;2023-06-26T00:57:37;2.65;;;2.30;;
35028;SDS011;35394;54.282;10.070;2023-06-26T00:58:08;3.30;;;2.40;;
35028;SDS011;35394;54.282;10.070;2023-06-26T00:58:39;3.30;;;2.50;;
35028;SDS011;35394;54.282;10.070;2023-06-26T00:59:10;2.85;;;2.50;;
35028;SDS011;35394;54.282;10.070;2023-06-26T00:59:43;3.00;;;2.70;;
35028;SDS011;35394;54.282;10.070;2023-06-26T01:00:14;2.85;;;2.47;;
35028;SDS011;35394;54.282;10.070;2023-06-26T01:00:45;3.20;;;2.50;;
35028;SDS011;35394;54.282;10.070;2023-06-26T01:01:15;2.90;;;2.40;;
35028;SDS011;35394;54.282;10.070;2023-06-26T01:01:47;2.70;;;2.35;;
35028;SDS011;35394;54.282;10.070;2023-06-26T01:02:18;2.90;;;2.45;;
35028;SDS011;35394;54.282;10.070;2023-06-26T01:02:50;2.60;;;2.40;;
35028;SDS011;35394;54.282;10.070;2023-06-26T01:03:24;3.13;;;2.60;;
35028;SDS011;35394;54.282;10.070;2023-06-26T01:03:55;2.95;;;2.47;;
35028;SDS011;35394;54.282;10.070;2023-06-26T01:04:27;2.55;;;2.35;;
35028;SDS011;35394;54.282;10.070;2023-06-26T01:05:02;3.50;;;2.50;;
35028;SDS011;35394;54.282;10.070;2023-06-26T01:05:36;3.00;;;2.50;;
35028;SDS011;35394;54.282;10.070;2023-06-26T01:06:08;2.83;;;2.40;;
35028;SDS011;35394;54.282;10.070;2023-06-26T01:06:41;2.47;;;2.25;;
35028;SDS011;35394;54.282;10.070;2023-06-26T01:07:13;3.15;;;2.55;;
35028;SDS011;35394;54.282;10.070;2023-06-26T01:07:44;2.97;;;2.47;;
35028;SDS011;35394;54.282;10.070;2023-06-26T01:08:15;2.90;;;2.57;;
35028;SDS011;35394;54.282;10.070;2023-06-26T01:08:46;3.13;;;2.72;;
35028;SDS011;35394;54.282;10.070;2023-06-26T01:09:17;2.67;;;2.35;;
35028;SDS011;35394;54.282;10.070;2023-06-26T01:09:49;2.97;;;2.40;;
35028;SDS011;35394;54.282;10.070;2023-06-26T01:10:19;3.07;;;2.40;;
35028;SDS011;35394;54.282;10.070;2023-06-26T01:10:50;2.80;;;2.40;;
35028;SDS011;35394;54.282;10.070;2023-06-26T01:11:21;3.45;;;2.70;;
35028;SDS011;35394;54.282;10.070;2023-06-26T01:11:52;2.95;;;2.45;;
35028;SDS011;35394;54.282;10.070;2023-06-26T01:12:22;2.90;;;2.60;;
35028;SDS011;35394;54.282;10.070;2023-06-26T01:12:53;2.63;;;2.30;;
35028;SDS011;35394;54.282;10.070;2023-06-26T01:13:24;2.93;;;2.50;;
35028;SDS011;35394;54.282;10.070;2023-06-26T01:13:54;2.90;;;2.60;;
35028;SDS011;35394;54.282;10.070;2023-06-26T01:14:26;3.55;;;2.70;;
35028;SDS011;35394;54.282;10.070;2023-06-26T01:14:57;3.10;;;2.60;;
35028;SDS011;35394;54.282;10.070;2023-06-26T01:15:28;3.08;;;2.60;;
35028;SDS011;35394;54.282;10.070;2023-06-26T01:15:58;3.00;;;2.60;;
35028;SDS011;35394;54.282;10.070;2023-06-26T01:16:29;2.67;;;2.40;;
35028;SDS011;35394;54.282;10.070;2023-06-26T01:17:00;3.22;;;2.60;;
35028;SDS011;35394;54.282;10.070;2023-06-26T01:17:31;3.50;;;2.85;;
35028;SDS011;35394;54.282;10.070;2023-06-26T01:18:02;2.95;;;2.55;;
35028;SDS011;35394;54.282;10.070;2023-06-26T01:18:33;3.38;;;2.70;;
35028;SDS011;35394;54.282;10.070;2023-06-26T01:19:08;3.55;;;2.75;;
35028;SDS011;35394;54.282;10.070;2023-06-26T01:19:41;3.50;;;2.75;;
35028;SDS011;35394;54.282;10.070;2023-06-26T01:20:12;3.00;;;2.60;;
35028;SDS011;35394;54.282;10.070;2023-06-26T01:20:45;3.28;;;2.70;;
35028;SDS011;35394;54.282;10.070;2023-06-26T01:21:16;2.92;;;2.50;;
35028;SDS011;35394;54.282;10.070;2023-06-26T01:21:48;3.22;;;2.70;;
35028;SDS011;35394;54.282;10.070;2023-06-26T01:24:36;3.10;;;2.70;;
35028;SDS011;35394;54.282;10.070;2023-06-26T01:25:13;3.10;;;2.78;;
35028;SDS011;35394;54.282;10.070;2023-06-26T01:26:29;3.20;;;2.70;;
35028;SDS011;35394;54.282;10.070;2023-06-26T01:27:00;3.25;;;2.67;;
35028;SDS011;35394;54.282;10.070;2023-06-26T01:27:33;2.97;;;2.67;;
35028;SDS011;35394;54.282;10.070;2023-06-26T01:28:06;3.15;;;2.70;;
35028;SDS011;35394;54.282;10.070;2023-06-26T01:28:38;3.67;;;2.70;;
35028;SDS011;35394;54.282;10.070;2023-06-26T01:29:11;2.97;;;2.65;;
35028;SDS011;35394;54.282;10.070;2023-06-26T01:29:43;3.05;;;2.63;;
35028;SDS011;35394;54.282;10.070;2023-06-26T01:30:15;3.17;;;2.70;;
35028;SDS011;35394;54.282;10.070;2023-06-26T01:30:47;3.38;;;2.70;;
35028;SDS011;35394;54.282;10.070;2023-06-26T01:31:19;3.00;;;2.60;;
35028;SDS011;35394;54.282;10.070;2023-06-26T01:31:50;3.15;;;2.78;;
35028;SDS011;35394;54.282;10.070;2023-06-26T01:32:21;2.93;;;2.60;;
35028;SDS011;35394;54.282;10.070;2023-06-26T01:32:52;3.10;;;2.60;;
35028;SDS011;35394;54.282;10.070;2023-06-26T01:33:23;3.15;;;2.60;;
35028;SDS011;35394;54.282;10.070;2023-06-26T01:33:54;3.00;;;2.70;;
35028;SDS011;35394;54.282;10.070;2023-06-26T01:34:25;3.17;;;2.67;;
35028;SDS011;35394;54.282;10.070;2023-06-26T01:34:57;3.20;;;2.70;;
35028;SDS011;35394;54.282;10.070;2023-06-26T01:35:29;3.45;;;2.80;;
35028;SDS011;35394;54.282;10.070;2023-06-26T01:36:00;3.10;;;2.73;;
35028;SDS011;35394;54.282;10.070;2023-06-26T01:36:31;3.25;;;2.78;;
35028;SDS011;35394;54.282;10.070;2023-06-26T01:37:01;2.83;;;2.50;;
35028;SDS011;35394;54.282;10.070;2023-06-26T01:37:32;3.42;;;2.80;;
35028;SDS011;35394;54.282;10.070;2023-06-26T01:38:44;3.40;;;2.92;;
35028;SDS011;35394;54.282;10.070;2023-06-26T01:39:15;3.33;;;2.88;;
35028;SDS011;35394;54.282;10.070;2023-06-26T01:39:48;3.25;;;2.58;;
35028;SDS011;35394;54.282;10.070;2023-06-26T01:40:18;3.30;;;2.70;;
35028;SDS011;35394;54.282;10.070;2023-06-26T01:40:49;3.10;;;2.60;;
35028;SDS011;35394;54.282;10.070;2023-06-26T01:41:20;3.30;;;2.80;;
35028;SDS011;35394;54.282;10.070;2023-06-26T01:41:51;3.27;;;2.77;;
35028;SDS011;35394;54.282;10.070;2023-06-26T01:42:21;3.15;;;2.58;;
35028;SDS011;35394;54.282;10.070;2023-06-26T01:42:52;3.47;;;2.95;;
35028;SDS011;35394;54.282;10.070;2023-06-26T01:43:27;3.20;;;2.80;;
35028;SDS011;35394;54.282;10.070;2023-06-26T01:44:37;3.20;;;2.70;;
35028;SDS011;35394;54.282;10.070;2023-06-26T01:45:15;3.38;;;2.88;;
35028;SDS011;35394;54.282;10.070;2023-06-26T01:45:54;3.35;;;2.80;;
35028;SDS011;35394;54.282;10.070;2023-06-26T01:47:25;3.38;;;2.70;;
35028;SDS011;35394;54.282;10.070;2023-06-26T01:47:58;3.35;;;2.67;;
35028;SDS011;35394;54.282;10.070;2023-06-26T01:48:32;3.30;;;2.80;;
35028;SDS011;35394;54.282;10.070;2023-06-26T01:50:09;3.05;;;2.75;;
35028;SDS011;35394;54.282;10.070;2023-06-26T01:50:42;3.45;;;2.97;;
35028;SDS011;35394;54.282;10.070;2023-06-26T01:51:14;3.33;;;2.85;;
35028;SDS011;35394;54.282;10.070;2023-06-26T01:51:52;3.30;;;2.90;;
35028;SDS011;35394;54.282;10.070;2023-06-26T01:52:40;3.50;;;2.92;;
35028;SDS011;35394;54.282;10.070;2023-06-26T01:53:12;3.60;;;2.90;;
35028;SDS011;35394;54.282;10.070;2023-06-26T01:53:49;3.22;;;2.80;;
35028;SDS011;35394;54.282;10.070;2023-06-26T01:54:23;3.28;;;2.90;;
35028;SDS011;35394;54.282;10.070;2023-06-26T01:56:08;3.22;;;2.80;;
35028;SDS011;35394;54.282;10.070;2023-06-26T01:56:48;3.38;;;2.97;;
35028;SDS011;35394;54.282;10.070;2023-06-26T01:57:20;3.72;;;3.10;;
35028;SDS011;35394;54.282;10.070;2023-06-26T01:57:54;3.35;;;2.92;;
35028;SDS011;35394;54.282;10.070;2023-06-26T01:58:26;3.33;;;2.90;;
35028;SDS011;35394;54.282;10.070;2023-06-26T01:58:57;3.30;;;2.80;;
35028;SDS011;35394;54.282;10.070;2023-06-26T01:59:30;3.53;;;3.03;;
35028;SDS011;35394;54.282;10.070;2023-06-26T02:00:02;3.45;;;2.80;;
35028;SDS011;35394;54.282;10.070;2023-06-26T02:00:33;3.50;;;2.95;;
35028;SDS011;35394;54.282;10.070;2023-06-26T02:01:05;3.47;;;2.90;;
35028;SDS011;35394;54.282;10.070;2023-06-26T02:01:35;3.20;;;2.80;;
35028;SDS011;35394;54.282;10.070;2023-06-26T02:02:06;3.30;;;2.90;;
35028;SDS011;35394;54.282;10.070;2023-06-26T02:02:38;3.33;;;2.97;;
35028;SDS011;35394;54.282;10.070;2023-06-26T02:03:11;3.30;;;2.80;;
35028;SDS011;35394;54.282;10.070;2023-06-26T02:03:42;3.30;;;2.90;;
35028;SDS011;35394;54.282;10.070;2023-06-26T02:04:12;3.43;;;2.90;;
35028;SDS011;35394;54.282;10.070;2023-06-26T02:04:43;3.63;;;3.00;;
35028;SDS011;35394;54.282;10.070;2023-06-26T02:05:14;3.50;;;2.93;;
35028;SDS011;35394;54.282;10.070;2023-06-26T02:05:44;3.40;;;2.80;;
35028;SDS011;35394;54.282;10.070;2023-06-26T02:06:15;3.78;;;2.97;;
35028;SDS011;35394;54.282;10.070;2023-06-26T02:06:46;3.28;;;2.78;;
35028;SDS011;35394;54.282;10.070;2023-06-26T02:07:16;3.40;;;2.77;;
35028;SDS011;35394;54.282;10.070;2023-06-26T02:07:47;3.20;;;2.83;;
35028;SDS011;35394;54.282;10.070;2023-06-26T02:08:18;3.90;;;3.00;;
35028;SDS011;35394;54.282;10.070;2023-06-26T02:08:48;3.40;;;3.00;;
35028;SDS011;35394;54.282;10.070;2023-06-26T02:09:19;3.40;;;2.97;;
35028;SDS011;35394;54.282;10.070;2023-06-26T02:09:50;3.30;;;2.83;;
35028;SDS011;35394;54.282;10.070;2023-06-26T02:10:21;3.42;;;2.85;;
35028;SDS011;35394;54.282;10.070;2023-06-26T02:10:51;3.28;;;2.80;;
35028;SDS011;35394;54.282;10.070;2023-06-26T02:11:22;3.60;;;3.07;;
35028;SDS011;35394;54.282;10.070;2023-06-26T02:11:53;3.33;;;2.80;;
35028;SDS011;35394;54.282;10.070;2023-06-26T02:12:24;3.67;;;3.05;;
35028;SDS011;35394;54.282;10.070;2023-06-26T02:12:54;3.60;;;3.10;;
35028;SDS011;35394;54.282;10.070;2023-06-26T02:13:25;3.00;;;2.70;;
35028;SDS011;35394;54.282;10.070;2023-06-26T02:13:56;3.55;;;3.10;;
35028;SDS011;35394;54.282;10.070;2023-06-26T02:14:26;3.20;;;2.90;;
35028;SDS011;35394;54.282;10.070;2023-06-26T02:14:57;3.67;;;3.05;;
35028;SDS011;35394;54.282;10.070;2023-06-26T02:15:27;3.37;;;2.93;;
35028;SDS011;35394;54.282;10.070;2023-06-26T02:15:58;3.30;;;2.80;;
35028;SDS011;35394;54.282;10.070;2023-06-26T02:16:29;3.60;;;2.93;;
35028;SDS011;35394;54.282;10.070;2023-06-26T02:17:00;3.53;;;3.10;;
35028;SDS011;35394;54.282;10.070;2023-06-26T02:17:30;3.22;;;2.85;;
35028;SDS011;35394;54.282;10.070;2023-06-26T02:18:01;3.40;;;3.00;;
35028;SDS011;35394;54.282;10.070;2023-06-26T02:18:32;3.40;;;3.00;;
35028;SDS011;35394;54.282;10.070;2023-06-26T02:19:02;3.97;;;3.17;;
35028;SDS011;35394;54.282;10.070;2023-06-26T02:19:33;3.33;;;2.90;;
35028;SDS011;35394;54.282;10.070;2023-06-26T02:20:04;3.30;;;2.90;;
35028;SDS011;35394;54.282;10.070;2023-06-26T02:20:35;3.33;;;2.90;;
35028;SDS011;35394;54.282;10.070;2023-06-26T02:21:06;3.80;;;3.10;;
35028;SDS011;35394;54.282;10.070;2023-06-26T02:21:37;4.03;;;3.20;;
35028;SDS011;35394;54.282;10.070;2023-06-26T02:22:08;3.65;;;3.05;;
35028;SDS011;35394;54.282;10.070;2023-06-26T02:22:39;3.42;;;3.10;;
35028;SDS011;35394;54.282;10.070;2023-06-26T02:23:09;3.47;;;3.07;;
35028;SDS011;35394;54.282;10.070;2023-06-26T02:23:40;3.40;;;2.95;;
35028;SDS011;35394;54.282;10.070;2023-06-26T02:24:11;3.83;;;3.13;;
35028;SDS011;35394;54.282;10.070;2023-06-26T02:24:42;3.55;;;3.00;;
35028;SDS011;35394;54.282;10.070;2023-06-26T02:25:13;3.65;;;2.97;;
35028;SDS011;35394;54.282;10.070;2023-06-26T02:25:44;3.40;;;2.97;;
35028;SDS011;35394;54.282;10.070;2023-06-26T02:26:15;3.37;;;2.90;;
35028;SDS011;35394;54.282;10.070;2023-06-26T02:26:45;3.75;;;3.03;;
35028;SDS011;35394;54.282;10.070;2023-06-26T02:27:16;3.47;;;3.13;;
35028;SDS011;35394;54.282;10.070;2023-06-26T02:27:46;3.58;;;3.10;;
35028;SDS011;35394;54.282;10.070;2023-06-26T02:28:17;3.50;;;2.90;;
35028;SDS011;35394;54.282;10.070;2023-06-26T02:28:48;3.53;;;3.10;;
35028;SDS011;35394;54.282;10.070;2023-06-26T02:29:19;3.30;;;3.00;;
35028;SDS011;35394;54.282;10.070;2023-06-26T02:29:49;3.42;;;3.00;;
35028;SDS011;35394;54.282;10.070;2023-06-26T02:30:20;3.43;;;2.93;;
35028;SDS011;35394;54.282;10.070;2023-06-26T02:30:51;3.35;;;3.00;;
35028;SDS011;35394;54.282;10.070;2023-06-26T02:31:21;3.30;;;3.00;;
35028;SDS011;35394;54.282;10.070;2023-06-26T02:31:52;3.38;;;2.90;;
35028;SDS011;35394;54.282;10.070;2023-06-26T02:32:22;3.70;;;3.27;;
35028;SDS011;35394;54.282;10.070;2023-06-26T02:32:53;3.75;;;3.13;;
35028;SDS011;35394;54.282;10.070;2023-06-26T02:33:24;3.30;;;2.90;;
35028;SDS011;35394;54.282;10.070;2023-06-26T02:33:54;3.60;;;3.00;;
35028;SDS011;35394;54.282;10.070;2023-06-26T02:34:25;3.50;;;3.00;;
35028;SDS011;35394;54.282;10.070;2023-06-26T02:34:56;3.40;;;2.97;;
35028;SDS011;35394;54.282;10.070;2023-06-26T02:35:26;3.47;;;3.08;;
35028;SDS011;35394;54.282;10.070;2023-06-26T02:35:57;3.50;;;3.00;;
35028;SDS011;35394;54.282;10.070;2023-06-26T02:36:27;3.50;;;3.03;;
35028;SDS011;35394;54.282;10.070;2023-06-26T02:36:58;3.47;;;3.17;;
35028;SDS011;35394;54.282;10.070;2023-06-26T02:37:30;3.88;;;3.40;;
35028;SDS011;35394;54.282;10.070;2023-06-26T02:38:01;3.97;;;3.22;;
35028;SDS011;35394;54.282;10.070;2023-06-26T02:38:31;4.10;;;3.40;;
35028;SDS011;35394;54.282;10.070;2023-06-26T02:39:02;3.67;;;3.20;;
35028;SDS011;35394;54.282;10.070;2023-06-26T02:39:36;3.63;;;3.20;;
35028;SDS011;35394;54.282;10.070;2023-06-26T02:40:07;3.80;;;3.25;;
35028;SDS011;35394;54.282;10.070;2023-06-26T02:40:39;3.40;;;2.92;;
35028;SDS011;35394;54.282;10.070;2023-06-26T02:41:09;3.50;;;3.17;;
35028;SDS011;35394;54.282;10.070;2023-06-26T02:41:40;4.22;;;3.20;;
35028;SDS011;35394;54.282;10.070;2023-06-26T02:42:11;3.67;;;3.28;;
35028;SDS011;35394;54.282;10.070;2023-06-26T02:42:42;3.83;;;3.22;;
35028;SDS011;35394;54.282;10.070;2023-06-26T02:43:12;3.63;;;3.17;;
35028;SDS011;35394;54.282;10.070;2023-06-26T02:43:43;4.00;;;3.15;;
35028;SDS011;35394;54.282;10.070;2023-06-26T02:44:13;3.50;;;3.10;;
35028;SDS011;35394;54.282;10.070;2023-06-26T02:44:44;3.92;;;3.30;;
35028;SDS011;35394;54.282;10.070;2023-06-26T02:45:15;3.70;;;3.20;;
35028;SDS011;35394;54.282;10.070;2023-06-26T02:45:45;3.50;;;3.10;;
35028;SDS011;35394;54.282;10.070;2023-06-26T02:46:16;3.47;;;3.10;;
35028;SDS011;35394;54.282;10.070;2023-06-26T02:46:47;3.90;;;3.20;;
35028;SDS011;35394;54.282;10.070;2023-06-26T02:47:17;3.72;;;3.20;;
35028;SDS011;35394;54.282;10.070;2023-06-26T02:47:48;3.47;;;3.03;;
35028;SDS011;35394;54.282;10.070;2023-06-26T02:48:18;4.30;;;3.10;;
35028;SDS011;35394;54.282;10.070;2023-06-26T02:48:49;3.30;;;3.00;;
35028;SDS011;35394;54.282;10.070;2023-06-26T02:49:20;3.97;;;3.40;;
35028;SDS011;35394;54.282;10.070;2023-06-26T02:49:50;3.30;;;2.90;;
35028;SDS011;35394;54.282;10.070;2023-06-26T02:50:21;3.40;;;3.10;;
35028;SDS011;35394;54.282;10.070;2023-06-26T02:50:52;4.07;;;3.28;;
35028;SDS011;35394;54.282;10.070;2023-06-26T02:51:22;3.30;;;2.97;;
35028;SDS011;35394;54.282;10.070;2023-06-26T02:51:53;3.47;;;2.95;;
35028;SDS011;35394;54.282;10.070;2023-06-26T02:52:23;3.47;;;3.00;;
35028;SDS011;35394;54.282;10.070;2023-06-26T02:52:54;3.63;;;3.05;;
35028;SDS011;35394;54.282;10.070;2023-06-26T02:53:25;3.53;;;3.10;;
35028;SDS011;35394;54.282;10.070;2023-06-26T02:53:55;3.63;;;3.20;;
35028;SDS011;35394;54.282;10.070;2023-06-26T02:54:26;3.83;;;3.10;;
35028;SDS011;35394;54.282;10.070;2023-06-26T02:54:57;3.53;;;3.10;;
35028;SDS011;35394;54.282;10.070;2023-06-26T02:55:27;3.50;;;3.08;;
35028;SDS011;35394;54.282;10.070;2023-06-26T02:55:58;3.63;;;3.20;;
35028;SDS011;35394;54.282;10.070;2023-06-26T02:56:29;3.67;;;3.30;;
35028;SDS011;35394;54.282;10.070;2023-06-26T02:56:59;3.70;;;3.30;;
35028;SDS011;35394;54.282;10.070;2023-06-26T02:57:30;3.60;;;3.20;;
35028;SDS011;35394;54.282;10.070;2023-06-26T02:58:01;3.72;;;3.25;;
35028;SDS011;35394;54.282;10.070;2023-06-26T02:58:31;3.70;;;3.25;;
35028;SDS011;35394;54.282;10.070;2023-06-26T02:59:02;4.00;;;3.50;;
35028;SDS011;35394;54.282;10.070;2023-06-26T02:59:33;3.90;;;3.38;;
35028;SDS011;35394;54.282;10.070;2023-06-26T03:00:04;3.75;;;3.20;;
35028;SDS011;35394;54.282;10.070;2023-06-26T03:00:38;3.67;;;3.08;;
35028;SDS011;35394;54.282;10.070;2023-06-26T03:01:11;4.00;;;3.30;;
35028;SDS011;35394;54.282;10.070;2023-06-26T03:01:41;3.67;;;3.00;;
35028;SDS011;35394;54.282;10.070;2023-06-26T03:02:12;3.40;;;3.10;;
35028;SDS011;35394;54.282;10.070;2023-06-26T03:02:43;4.00;;;3.38;;
35028;SDS011;35394;54.282;10.070;2023-06-26T03:03:13;3.65;;;3.10;;
35028;SDS011;35394;54.282;10.070;2023-06-26T03:03:44;3.80;;;3.30;;
35028;SDS011;35394;54.282;10.070;2023-06-26T03:04:17;3.95;;;3.28;;
35028;SDS011;35394;54.282;10.070;2023-06-26T03:04:47;3.90;;;3.47;;
35028;SDS011;35394;54.282;10.070;2023-06-26T03:05:19;3.92;;;3.35;;
35028;SDS011;35394;54.282;10.070;2023-06-26T03:05:50;3.87;;;3.40;;
35028;SDS011;35394;54.282;10.070;2023-06-26T03:06:21;4.25;;;3.30;;
35028;SDS011;35394;54.282;10.070;2023-06-26T03:06:51;3.70;;;3.30;;
35028;SDS011;35394;54.282;10.070;2023-06-26T03:07:22;3.83;;;3.30;;
35028;SDS011;35394;54.282;10.070;2023-06-26T03:07:53;4.00;;;3.53;;
35028;SDS011;35394;54.282;10.070;2023-06-26T03:08:24;3.58;;;3.22;;
35028;SDS011;35394;54.282;10.070;2023-06-26T03:08:54;3.90;;;3.50;;
35028;SDS011;35394;54.282;10.070;2023-06-26T03:09:25;3.60;;;3.10;;
35028;SDS011;35394;54.282;10.070;2023-06-26T03:09:56;4.03;;;3.40;;
35028;SDS011;35394;54.282;10.070;2023-06-26T03:10:27;3.97;;;3.37;;
35028;SDS011;35394;54.282;10.070;2023-06-26T03:10:57;4.07;;;3.63;;
35028;SDS011;35394;54.282;10.070;2023-06-26T03:11:28;3.85;;;3.40;;
35028;SDS011;35394;54.282;10.070;2023-06-26T03:11:58;3.90;;;3.20;;
35028;SDS011;35394;54.282;10.070;2023-06-26T03:12:29;3.80;;;3.38;;
35028;SDS011;35394;54.282;10.070;2023-06-26T03:13:00;3.80;;;3.27;;